»·PEaware :: N2442P KHAF-O60

N2442P :: KHAF-O60

FLIGHT INFORMATION

Flight Status: Arrived
Operator: Privately registered:
United States
More flights under this callsign
Pilot: Ken Q. (14290)
Aircraft: MOONEY M-20K/M ENCORE BRAVO
(M20T)
More flights by this aircraft type
Origin: KHAF Half Moon Bay
United States
Destination: O60 Cloverdale Mun
United States
More flights between these airports :: More routes between these airports
Route: KHAF WP1 PYE STS O60
File this flight plan on PilotEdge
Remarks: WP1 IS A POINT WEST OF THE SFO BRAVO
Altitude:
(Current/Filed)
6,500ft
Speed:
(Current/Filed)
175kts
Departed: 09-Apr-19 01:26 PM
Arrived: 09-Apr-19 02:16 PM
Distance/Time
Traveled:
79nm/0:50
Distance/Time
To Go:
Arrived

Flight Plot

Page will automatically refresh every two minutes.

Flight plan parsing failed; only flown route is shown


Map Options




Map Legend


Flown Route
Filed Route
Departure Airport
Arrival Airport
Navaid (VOR, NDB)
Fix

Horizontal Profiles

Position Reports

Time Latitude Longitude Heading Altitude Ground
Speed
09-Apr-19 13:07 37.513890 -122.495427 301 70ft 0kts
09-Apr-19 13:08 37.513890 -122.495427 301 70ft 0kts
09-Apr-19 13:09 37.513890 -122.495427 301 70ft 0kts
09-Apr-19 13:10 37.513890 -122.495427 301 70ft 0kts
09-Apr-19 13:11 37.513890 -122.495427 301 70ft 0kts
09-Apr-19 13:12 37.513890 -122.495427 301 70ft 0kts
09-Apr-19 13:13 37.513890 -122.495427 301 70ft 0kts
09-Apr-19 13:14 37.513890 -122.495427 301 70ft 0kts
09-Apr-19 13:15 37.513891 -122.495428 301 70ft 0kts
09-Apr-19 13:16 37.513891 -122.495429 301 70ft 0kts
09-Apr-19 13:17 37.513891 -122.495430 301 70ft 0kts
09-Apr-19 13:18 37.513892 -122.495430 301 70ft 0kts
09-Apr-19 13:19 37.513904 -122.495456 301 70ft 2kts
09-Apr-19 13:20 37.513408 -122.495771 115 70ft 12kts
09-Apr-19 13:21 37.510417 -122.492782 223 70ft 11kts
09-Apr-19 13:22 37.508932 -122.494703 225 70ft 0kts
09-Apr-19 13:23 37.508928 -122.494709 225 70ft 0kts
09-Apr-19 13:25 37.508617 -122.495492 310 70ft 5kts
09-Apr-19 13:26 37.521951 -122.512169 304 580ft 101kts
09-Apr-19 13:27 37.518621 -122.556201 270 1131ft 136kts
09-Apr-19 13:28 37.513755 -122.604022 270 1613ft 139kts
09-Apr-19 13:29 37.508832 -122.652659 270 2094ft 140kts
09-Apr-19 13:30 37.503921 -122.701691 270 2491ft 147kts
09-Apr-19 13:31 37.499112 -122.755552 270 2480ft 159kts
09-Apr-19 13:32 37.494525 -122.811245 278 2476ft 157kts
09-Apr-19 13:33 37.522200 -122.839175 329 3058ft 127kts
09-Apr-19 13:34 37.551973 -122.861949 333 3653ft 123kts
09-Apr-19 13:35 37.582899 -122.880183 335 4253ft 122kts
09-Apr-19 13:36 37.613736 -122.898330 335 4849ft 122kts
09-Apr-19 13:37 37.646764 -122.906206 356 5452ft 123kts
09-Apr-19 13:38 37.681790 -122.904508 5 5881ft 137kts
09-Apr-19 13:39 37.721763 -122.897398 2 5971ft 148kts
09-Apr-19 13:40 37.761310 -122.892315 2 6437ft 138kts
09-Apr-19 13:41 37.801754 -122.886992 2 6473ft 152kts
09-Apr-19 13:42 37.844496 -122.881581 2 6470ft 156kts
09-Apr-19 13:43 37.887915 -122.876292 2 6468ft 157kts
09-Apr-19 13:44 37.930202 -122.861525 17 6466ft 160kts
09-Apr-19 13:45 37.971106 -122.839018 10 6464ft 159kts
09-Apr-19 13:46 38.014796 -122.832392 2 6455ft 159kts
09-Apr-19 13:46 38.051681 -122.828646 2 6452ft 159kts
09-Apr-19 13:48 38.103338 -122.825026 0 6440ft 159kts
09-Apr-19 13:49 38.147634 -122.822735 0 6438ft 159kts
09-Apr-19 13:50 38.191972 -122.820442 0 6439ft 159kts
09-Apr-19 13:51 38.236238 -122.818151 0 6439ft 159kts
09-Apr-19 13:51 38.273575 -122.816235 0 6428ft 162kts
09-Apr-19 13:53 38.319049 -122.814159 359 6433ft 159kts
09-Apr-19 13:53 38.356559 -122.814093 358 6428ft 162kts
09-Apr-19 13:54 38.401405 -122.814090 358 6431ft 160kts
09-Apr-19 13:56 38.449006 -122.813982 358 5816ft 137kts
09-Apr-19 13:56 38.481719 -122.813833 358 5306ft 142kts
09-Apr-19 13:58 38.521891 -122.813893 348 4700ft 146kts
09-Apr-19 13:58 38.549386 -122.838203 327 4191ft 143kts
09-Apr-19 13:59 38.579777 -122.862414 336 3553ft 120kts
09-Apr-19 14:01 38.616478 -122.883015 336 2849ft 125kts
09-Apr-19 14:01 38.643073 -122.897396 336 2436ft 124kts
09-Apr-19 14:02 38.673858 -122.913661 336 2176ft 113kts
09-Apr-19 14:03 38.703608 -122.931915 328 1723ft 123kts
09-Apr-19 14:04 38.734747 -122.953285 328 1235ft 128kts
09-Apr-19 14:05 38.764361 -122.974082 340 1196ft 119kts
09-Apr-19 14:06 38.795288 -122.988925 351 1206ft 123kts
09-Apr-19 14:07 38.784386 -122.983153 121 1178ft 142kts
09-Apr-19 14:08 38.757274 -122.957133 222 1086ft 106kts
09-Apr-19 14:09 38.762818 -122.981807 305 878ft 70kts
09-Apr-19 14:10 38.775134 -122.996230 321 1065ft 77kts
09-Apr-19 14:11 38.774593 -122.970705 143 1016ft 139kts
09-Apr-19 14:12 38.746724 -122.956891 240 998ft 102kts
09-Apr-19 14:13 38.758689 -122.980223 326 774ft 72kts
09-Apr-19 14:14 38.774242 -122.991414 329 275ft 55kts
09-Apr-19 14:15 38.776704 -122.993480 154 275ft 6kts
09-Apr-19 14:16 38.774371 -122.992313 179 275ft 0kts
09-Apr-19 14:17 38.774548 -122.992319 180 275ft 2kts
09-Apr-19 14:18 38.774567 -122.992051 149 275ft 4kts
09-Apr-19 14:19 38.774148 -122.991935 215 275ft 0kts
09-Apr-19 14:20 38.774560 -122.992584 305 275ft 10kts
09-Apr-19 14:21 38.774753 -122.992759 236 275ft 0kts
09-Apr-19 14:22 38.774601 -122.992869 240 275ft 0kts
09-Apr-19 14:23 38.774601 -122.992869 240 275ft 0kts

Navigation Log

Ident Type
Flight plan parsing failed, navigation log unavailable